Time;durP1;ratioP1;P1;durP2;ratioP2;P2;SDS_P1;SDS_P2;PMS_P1;PMS_P2;Temp;Humidity;BMP_temperature;BMP_pressure;BME280_temperature;BME280_humidity;BME280_pressure;Samples;Min_cycle;Max_cycle;Signal;HPM_P1;HPM_P2
2023/04/18 00:01:37;;;;;;;10.73;7.88;;;;;;;8.50;90.59;102538.66;5038883;28;20029;-61
2023/04/18 00:04:03;;;;;;;13.40;11.03;;;;;;;8.41;91.10;102539.69;5028488;28;20087;-61
2023/04/18 00:06:30;;;;;;;12.57;10.35;;;;;;;8.41;91.03;102548.75;5028730;28;20053;-61
2023/04/18 00:08:55;;;;;;;11.82;10.52;;;;;;;8.27;91.86;102538.53;5027697;28;20060;-61
2023/04/18 00:11:20;;;;;;;12.65;10.00;;;;;;;8.19;91.59;102533.91;5027492;28;20030;-61
2023/04/18 00:13:46;;;;;;;11.43;10.18;;;;;;;8.39;88.75;102531.66;5028088;28;20033;-62
2023/04/18 00:16:12;;;;;;;9.77;7.20;;;;;;;8.70;87.26;102523.50;5030112;28;20384;-61
2023/04/18 00:18:38;;;;;;;9.68;7.90;;;;;;;8.54;85.91;102531.78;5028065;28;20056;-61
2023/04/18 00:21:05;;;;;;;11.38;9.80;;;;;;;8.05;88.09;102529.13;5027711;28;20032;-61
2023/04/18 00:23:33;;;;;;;11.07;8.95;;;;;;;8.22;86.00;102535.44;5031646;28;20408;-61
2023/04/18 00:25:58;;;;;;;9.30;7.57;;;;;;;8.30;83.90;102532.69;5027769;28;20040;-61
2023/04/18 00:28:24;;;;;;;8.52;7.13;;;;;;;8.32;82.44;102530.63;5025810;28;20026;-61
2023/04/18 00:30:49;;;;;;;8.82;7.75;;;;;;;8.29;82.59;102530.97;5026554;28;20110;-61
2023/04/18 00:33:15;;;;;;;10.85;9.55;;;;;;;8.04;84.19;102541.09;5027280;28;20059;-62
2023/04/18 00:35:40;;;;;;;11.07;9.00;;;;;;;8.07;82.87;102538.03;5027385;28;20037;-62
2023/04/18 00:38:06;;;;;;;9.27;6.30;;;;;;;8.35;81.11;102532.16;5028132;28;20550;-62
2023/04/18 00:40:31;;;;;;;7.63;6.45;;;;;;;8.25;82.39;102535.94;5026801;28;20054;-62
2023/04/18 00:42:56;;;;;;;9.95;7.63;;;;;;;8.19;81.56;102533.91;5027574;28;20108;-62
2023/04/18 00:45:21;;;;;;;9.90;8.80;;;;;;;7.94;82.58;102541.28;5026656;28;20365;-61
2023/04/18 00:47:47;;;;;;;11.40;8.25;;;;;;;7.96;81.94;102536.50;5028157;28;20072;-62
2023/04/18 00:50:13;;;;;;;10.30;7.60;;;;;;;8.25;78.99;102526.88;5026257;28;20021;-63
2023/04/18 00:52:39;;;;;;;10.23;7.93;;;;;;;8.10;80.02;102532.19;5026286;28;20037;-61
2023/04/18 00:55:06;;;;;;;9.82;7.53;;;;;;;8.17;79.13;102535.13;5026477;28;20040;-61
2023/04/18 00:57:32;;;;;;;8.93;6.85;;;;;;;7.98;80.53;102545.38;5026902;28;20033;-61
2023/04/18 01:00:05;;;;;;;11.15;7.32;;;;;;;8.15;80.10;102532.53;5025252;28;20044;-61
2023/04/18 01:02:32;;;;;;;10.35;8.32;;;;;;;8.03;79.75;102536.66;5024071;28;20060;-61
2023/04/18 01:04:58;;;;;;;9.63;8.18;;;;;;;7.98;80.17;102528.97;5027154;28;20033;-61
2023/04/18 01:07:25;;;;;;;10.40;8.18;;;;;;;7.79;81.31;102534.78;5026332;28;20079;-61
2023/04/18 01:09:52;;;;;;;9.70;6.97;;;;;;;7.83;81.88;102538.91;5026795;28;20072;-61
2023/04/18 01:12:17;;;;;;;11.00;8.48;;;;;;;7.63;82.79;102532.91;5025743;28;20025;-62
2023/04/18 01:14:42;;;;;;;7.80;6.03;;;;;;;7.92;80.52;102534.28;5025983;28;20035;-62
2023/04/18 01:17:09;;;;;;;8.07;5.95;;;;;;;8.17;78.70;102533.22;5010348;28;20017;-62
2023/04/18 01:19:36;;;;;;;10.13;8.43;;;;;;;7.97;79.69;102542.84;5025336;28;20025;-61
2023/04/18 01:22:02;;;;;;;10.98;8.70;;;;;;;7.59;81.95;102536.16;5026600;28;20376;-61
2023/04/18 01:24:28;;;;;;;10.80;7.82;;;;;;;7.61;81.84;102534.13;5028888;28;20033;-61
2023/04/18 01:26:54;;;;;;;8.65;7.75;;;;;;;7.75;80.65;102534.25;5026905;28;20027;-61
2023/04/18 01:29:19;;;;;;;11.27;8.23;;;;;;;7.60;81.77;102529.66;5024710;28;20116;-62
2023/04/18 01:31:45;;;;;;;8.77;6.55;;;;;;;7.53;81.89;102519.41;5026650;28;20048;-61
2023/04/18 01:34:10;;;;;;;10.98;7.28;;;;;;;7.51;81.92;102520.59;5027090;28;20033;-61
2023/04/18 01:36:37;;;;;;;9.93;8.52;;;;;;;7.62;80.92;102517.53;5025197;28;20030;-62
2023/04/18 01:39:03;;;;;;;10.40;6.07;;;;;;;7.66;80.49;102516.16;5025211;28;20535;-61
2023/04/18 01:41:31;;;;;;;8.75;7.82;;;;;;;7.42;81.63;102517.00;5025523;28;20054;-61
2023/04/18 01:43:56;;;;;;;10.23;8.23;;;;;;;7.62;79.95;102511.22;5025442;28;20028;-61
2023/04/18 01:46:21;;;;;;;10.55;9.20;;;;;;;7.41;80.54;102508.97;5024415;28;20117;-61
2023/04/18 01:48:47;;;;;;;9.43;7.47;;;;;;;7.36;81.37;102517.69;5025847;28;20373;-61
2023/04/18 01:51:12;;;;;;;11.05;8.88;;;;;;;7.25;81.58;102515.28;5029114;28;20064;-62
2023/04/18 01:53:38;;;;;;;9.50;7.80;;;;;;;7.28;80.95;102513.03;5025792;28;20033;-62
2023/04/18 01:56:03;;;;;;;9.82;8.57;;;;;;;7.19;81.42;102511.31;5026029;28;20065;-61
2023/04/18 01:58:28;;;;;;;8.82;7.30;;;;;;;7.36;80.54;102511.38;5026002;28;20108;-62
2023/04/18 02:00:57;;;;;;;8.90;6.78;;;;;;;7.15;80.86;102511.84;5032371;28;20384;-61
2023/04/18 02:03:23;;;;;;;11.27;8.50;;;;;;;6.92;82.19;102511.59;5026540;28;20108;-62
2023/04/18 02:05:49;;;;;;;10.52;9.43;;;;;;;7.00;81.59;102511.63;5024803;28;20112;-61
2023/04/18 02:08:14;;;;;;;8.27;6.38;;;;;;;7.06;80.61;102505.50;5024292;28;20112;-61
2023/04/18 02:10:40;;;;;;;9.75;8.30;;;;;;;7.02;80.48;102509.56;5026323;28;20064;-61
2023/04/18 02:13:05;;;;;;;10.32;7.80;;;;;;;7.14;79.28;102508.22;5026674;28;20704;-61
2023/04/18 02:15:31;;;;;;;9.40;7.85;;;;;;;7.00;79.44;102509.75;5027197;28;20032;-61
2023/04/18 02:17:58;;;;;;;10.02;8.27;;;;;;;6.79;80.98;102511.19;5025519;28;20072;-61
2023/04/18 02:20:25;;;;;;;8.07;7.05;;;;;;;6.83;80.25;102507.13;5025526;28;20543;-61
2023/04/18 02:22:50;;;;;;;7.60;6.28;;;;;;;6.82;80.01;102509.00;5025922;28;20381;-61
2023/04/18 02:25:17;;;;;;;11.80;7.47;;;;;;;6.68;80.92;102509.63;5024452;28;20033;-65
2023/04/18 02:27:42;;;;;;;9.85;8.07;;;;;;;6.51;81.54;102500.50;5025387;28;20040;-62
2023/04/18 02:30:08;;;;;;;8.90;7.28;;;;;;;6.81;79.43;102500.97;5023525;28;20037;-61
2023/04/18 02:32:33;;;;;;;10.57;8.70;;;;;;;6.40;81.02;102500.81;5025270;28;20171;-61
2023/04/18 02:34:58;;;;;;;10.23;5.88;;;;;;;6.58;80.27;102503.44;5025751;28;20070;-61
2023/04/18 02:37:24;;;;;;;10.75;9.20;;;;;;;6.38;81.38;102500.94;5025082;28;20034;-61
2023/04/18 02:39:49;;;;;;;10.48;8.32;;;;;;;6.54;79.39;102499.31;5025752;28;20030;-61
2023/04/18 02:42:15;;;;;;;7.13;6.20;;;;;;;6.52;80.12;102502.22;5025574;28;20402;-61
2023/04/18 02:44:40;;;;;;;8.35;7.43;;;;;;;6.67;79.22;102499.72;5026948;28;20030;-61
2023/04/18 02:47:05;;;;;;;8.57;7.55;;;;;;;6.70;79.30;102494.81;5023546;28;20037;-62
2023/04/18 02:49:31;;;;;;;8.10;7.13;;;;;;;6.61;79.60;102492.19;5025581;28;20025;-61
2023/04/18 02:51:56;;;;;;;7.95;6.43;;;;;;;6.41;80.00;102487.00;5027167;28;20030;-61
2023/04/18 02:54:23;;;;;;;10.25;9.25;;;;;;;6.01;82.41;102495.78;5029291;28;20199;-61
2023/04/18 02:56:50;;;;;;;7.63;6.82;;;;;;;6.29;80.33;102501.09;5030491;28;20036;-61
2023/04/18 02:59:15;;;;;;;8.10;6.80;;;;;;;6.45;79.62;102501.16;5027934;28;20036;-61
2023/04/18 03:01:40;;;;;;;7.07;5.95;;;;;;;6.29;80.19;102495.63;5030323;28;20022;-61
2023/04/18 03:04:05;;;;;;;9.00;8.10;;;;;;;6.19;80.24;102493.88;5030414;28;20018;-61
2023/04/18 03:06:31;;;;;;;10.15;8.02;;;;;;;6.22;80.48;102489.94;5030065;28;20091;-61
2023/04/18 03:08:56;;;;;;;10.90;9.10;;;;;;;6.08;80.25;102488.66;5029167;28;20053;-62
2023/04/18 03:11:22;;;;;;;8.30;6.28;;;;;;;6.12;80.16;102487.34;5028748;28;20026;-61
2023/04/18 03:13:47;;;;;;;8.45;6.78;;;;;;;6.24;79.72;102490.66;5029980;28;20028;-61
2023/04/18 03:16:12;;;;;;;9.57;7.85;;;;;;;6.06;80.55;102493.44;5032705;28;20068;-63
2023/04/18 03:18:37;;;;;;;9.55;8.55;;;;;;;6.02;81.22;102481.13;5031672;28;20029;-61
2023/04/18 03:21:03;;;;;;;10.25;7.82;;;;;;;5.95;81.32;102488.25;5029612;28;20029;-61
2023/04/18 03:23:28;;;;;;;11.25;7.97;;;;;;;6.01;80.85;102495.78;5028474;28;20464;-61
2023/04/18 03:25:54;;;;;;;9.13;6.30;;;;;;;6.10;79.85;102497.56;5029271;28;20025;-61
2023/04/18 03:28:19;;;;;;;9.75;7.28;;;;;;;5.93;81.18;102501.19;5029722;28;20389;-61
2023/04/18 03:30:44;;;;;;;10.43;8.25;;;;;;;5.70;82.09;102507.13;5031445;28;20099;-61
2023/04/18 03:33:10;;;;;;;8.18;5.97;;;;;;;5.82;81.47;102501.41;5026394;28;20025;-61
2023/04/18 03:35:35;;;;;;;12.10;9.70;;;;;;;5.61;83.28;102505.34;5028782;28;20080;-61
2023/04/18 03:38:00;;;;;;;11.10;9.15;;;;;;;5.40;84.62;102502.09;5029748;28;20080;-61
2023/04/18 03:40:26;;;;;;;8.18;5.90;;;;;;;5.89;81.73;102492.44;5028069;28;20036;-62
2023/04/18 03:42:51;;;;;;;10.65;7.32;;;;;;;5.73;82.12;102500.50;5029471;28;20530;-61
2023/04/18 03:45:16;;;;;;;9.88;7.60;;;;;;;5.57;83.08;102503.94;5028364;28;20021;-61
2023/04/18 03:47:41;;;;;;;13.23;9.82;;;;;;;5.58;82.58;102513.84;5030729;28;20469;-61
2023/04/18 03:50:07;;;;;;;10.07;9.07;;;;;;;5.17;85.02;102505.28;5029645;28;20040;-61
2023/04/18 03:52:32;;;;;;;9.27;7.47;;;;;;;5.31;84.77;102520.22;5027539;28;20033;-61
2023/04/18 03:54:58;;;;;;;10.00;8.40;;;;;;;5.21;84.94;102522.16;5028016;28;20689;-61
2023/04/18 03:57:23;;;;;;;9.20;8.23;;;;;;;5.28;84.34;102520.53;5027161;28;20030;-61
2023/04/18 03:59:49;;;;;;;8.38;6.57;;;;;;;5.58;82.21;102522.03;5033245;28;20427;-61
2023/04/18 04:02:14;;;;;;;10.15;7.35;;;;;;;5.59;82.92;102509.25;5027846;28;20025;-61
2023/04/18 04:04:40;;;;;;;7.70;6.20;;;;;;;5.54;82.54;102512.44;5029698;28;20056;-61
2023/04/18 04:07:05;;;;;;;7.68;6.55;;;;;;;5.43;83.32;102512.69;5028988;28;20473;-61
2023/04/18 04:09:30;;;;;;;9.73;8.07;;;;;;;5.43;83.26;102508.09;5027552;28;20488;-61
2023/04/18 04:11:55;;;;;;;9.80;7.80;;;;;;;5.30;84.57;102517.66;5028032;28;20388;-60
2023/04/18 04:14:21;;;;;;;8.43;6.22;;;;;;;5.26;84.10;102513.53;5027500;28;20033;-61
2023/04/18 04:16:47;;;;;;;11.20;8.65;;;;;;;4.99;86.28;102523.47;5030419;28;20029;-61
2023/04/18 04:19:13;;;;;;;11.25;8.13;;;;;;;5.26;84.18;102516.25;5027409;28;20504;-63
2023/04/18 04:21:39;;;;;;;12.00;9.07;;;;;;;5.25;84.06;102509.09;5030262;28;20072;-61
2023/04/18 04:24:05;;;;;;;8.98;6.80;;;;;;;5.28;83.90;102517.81;5028128;28;20668;-61
2023/04/18 04:26:31;;;;;;;10.10;7.22;;;;;;;5.29;83.92;102514.06;5028612;28;20025;-61
2023/04/18 04:28:56;;;;;;;8.15;7.07;;;;;;;5.31;83.93;102516.63;5027468;28;20357;-62
2023/04/18 04:31:21;;;;;;;10.43;8.70;;;;;;;5.16;85.04;102525.34;5026970;28;20388;-61
2023/04/18 04:33:47;;;;;;;9.82;6.32;;;;;;;5.32;83.48;102518.34;5028913;28;20064;-61
2023/04/18 04:36:15;;;;;;;7.53;5.50;;;;;;;5.35;83.31;102518.03;5020107;28;20499;-63
2023/04/18 04:38:43;;;;;;;7.65;6.32;;;;;;;5.21;84.20;102520.28;5045517;28;20033;-61
2023/04/18 04:41:08;;;;;;;9.60;8.60;;;;;;;5.10;84.60;102519.66;5030195;28;20480;-61
2023/04/18 04:43:34;;;;;;;7.20;5.57;;;;;;;5.33;83.35;102520.94;5031686;28;20040;-61
2023/04/18 04:45:59;;;;;;;9.07;7.55;;;;;;;5.06;84.91;102524.56;5028255;28;20159;-61
2023/04/18 04:48:25;;;;;;;8.20;5.88;;;;;;;5.16;84.11;102522.63;5028405;28;20029;-61
2023/04/18 04:50:54;;;;;;;7.90;6.35;;;;;;;5.38;83.09;102524.06;5029140;28;20048;-61
2023/04/18 04:53:19;;;;;;;10.60;9.38;;;;;;;5.02;84.91;102523.16;5027505;28;20100;-60
2023/04/18 04:55:45;;;;;;;6.50;5.72;;;;;;;5.04;84.74;102525.72;5027423;28;20276;-60
2023/04/18 04:58:10;;;;;;;9.55;8.55;;;;;;;5.35;82.78;102523.50;5025154;28;20048;-60
2023/04/18 05:00:35;;;;;;;10.10;8.43;;;;;;;5.16;83.94;102535.38;5025449;28;20026;-61
2023/04/18 05:03:01;;;;;;;9.75;8.75;;;;;;;5.05;84.80;102531.00;5026392;28;20029;-61
2023/04/18 05:05:26;;;;;;;9.07;7.35;;;;;;;5.13;84.77;102527.53;5024875;28;20032;-61
2023/04/18 05:07:53;;;;;;;9.85;8.23;;;;;;;5.05;85.36;102527.44;5020899;28;20025;-61
2023/04/18 05:10:18;;;;;;;10.27;9.20;;;;;;;4.93;86.13;102524.94;5024441;28;20108;-60
2023/04/18 05:12:43;;;;;;;8.75;7.65;;;;;;;5.31;84.04;102522.09;5024748;28;20156;-61
2023/04/18 05:15:09;;;;;;;8.77;7.88;;;;;;;5.60;82.45;102525.44;5005734;28;20120;-61
2023/04/18 05:17:34;;;;;;;9.10;7.45;;;;;;;5.25;84.46;102529.00;5024289;28;20033;-61
2023/04/18 05:20:00;;;;;;;11.23;8.60;;;;;;;5.32;83.66;102524.69;5025777;28;20080;-60
2023/04/18 05:22:25;;;;;;;8.38;6.22;;;;;;;5.39;83.49;102530.34;5023363;28;20048;-64
2023/04/18 05:24:50;;;;;;;9.88;8.55;;;;;;;5.35;83.89;102534.41;5026361;28;20079;-60
2023/04/18 05:27:16;;;;;;;9.00;8.10;;;;;;;5.50;83.64;102530.13;5025822;28;20041;-60
2023/04/18 05:29:41;;;;;;;9.80;8.80;;;;;;;5.31;85.14;102533.84;5025869;28;20322;-61
2023/04/18 05:32:06;;;;;;;10.27;8.18;;;;;;;5.42;84.59;102538.19;5006014;28;20420;-62
2023/04/18 05:34:34;;;;;;;8.77;6.68;;;;;;;5.35;84.86;102532.53;5024152;28;20122;-61
2023/04/18 05:37:00;;;;;;;10.75;8.70;;;;;;;5.06;87.48;102546.34;5023746;28;20152;-60
2023/04/18 05:39:25;;;;;;;9.43;7.70;;;;;;;5.66;84.10;102538.44;5025316;28;20128;-60
2023/04/18 05:41:50;;;;;;;10.38;7.95;;;;;;;5.39;85.20;102543.97;5025307;28;20034;-61
2023/04/18 05:44:16;;;;;;;8.90;7.32;;;;;;;5.36;85.57;102547.00;5021102;28;20138;-60
2023/04/18 05:46:42;;;;;;;10.05;7.57;;;;;;;5.18;87.72;102550.56;5023889;28;20025;-60
2023/04/18 05:49:07;;;;;;;10.02;9.02;;;;;;;5.36;86.86;102552.44;5026088;28;20036;-60
2023/04/18 05:51:32;;;;;;;9.02;7.35;;;;;;;5.38;86.93;102558.63;5025889;28;20038;-60
2023/04/18 05:53:58;;;;;;;9.60;8.60;;;;;;;5.44;87.08;102558.00;5023799;28;20587;-61
2023/04/18 05:56:23;;;;;;;9.35;7.20;;;;;;;5.52;87.65;102555.31;5026098;28;20044;-61
2023/04/18 05:58:50;;;;;;;8.20;6.45;;;;;;;5.80;85.41;102557.97;5024700;28;20063;-64
2023/04/18 06:01:17;;;;;;;10.05;9.05;;;;;;;5.67;87.82;102566.53;5024930;28;20388;-60
2023/04/18 06:03:42;;;;;;;8.80;7.68;;;;;;;5.92;86.33;102563.03;5025703;28;20061;-62
2023/04/18 06:06:08;;;;;;;8.50;6.63;;;;;;;5.90;86.54;102562.31;5024216;28;20124;-60
2023/04/18 06:08:33;;;;;;;8.60;6.88;;;;;;;5.99;87.39;102560.56;5026242;28;20104;-61
2023/04/18 06:10:58;;;;;;;9.90;8.90;;;;;;;5.93;88.69;102566.63;5025457;28;20384;-61
2023/04/18 06:13:24;;;;;;;8.38;7.47;;;;;;;6.10;88.25;102560.31;5007379;28;20051;-61
2023/04/18 06:15:49;;;;;;;8.85;7.45;;;;;;;6.59;84.75;102570.66;5006641;28;20503;-61
2023/04/18 06:18:14;;;;;;;9.05;6.85;;;;;;;6.77;83.75;102557.78;5025108;28;20890;-61
2023/04/18 06:20:40;;;;;;;9.07;7.35;;;;;;;6.61;84.42;102565.91;5042299;28;20016;-61
2023/04/18 06:23:07;;;;;;;9.43;7.85;;;;;;;6.85;83.92;102557.84;5044625;28;20412;-61
2023/04/18 06:25:32;;;;;;;9.65;8.40;;;;;;;7.04;83.22;102567.63;5045052;28;20973;-61
2023/04/18 06:27:57;;;;;;;8.65;7.15;;;;;;;6.70;84.80;102571.25;5044241;28;20186;-61
2023/04/18 06:30:23;;;;;;;8.90;8.00;;;;;;;7.11;82.89;102576.88;5043698;28;20542;-61
2023/04/18 06:32:48;;;;;;;9.05;8.10;;;;;;;6.95;83.89;102572.22;5045128;28;20025;-61
2023/04/18 06:35:14;;;;;;;8.57;7.60;;;;;;;7.10;83.15;102563.41;5023950;28;20028;-62
2023/04/18 06:37:42;;;;;;;8.65;7.57;;;;;;;6.99;84.65;102572.72;5020787;28;20415;-61
2023/04/18 06:40:08;;;;;;;8.75;7.68;;;;;;;7.19;82.64;102570.56;5023908;28;20038;-61
2023/04/18 06:42:34;;;;;;;8.85;7.45;;;;;;;7.33;82.51;102577.28;5024948;28;20045;-61
2023/04/18 06:44:59;;;;;;;9.60;8.70;;;;;;;7.61;81.59;102570.50;5026935;28;20088;-61
2023/04/18 06:47:25;;;;;;;9.23;6.45;;;;;;;7.46;82.59;102577.66;5026470;28;20034;-61
2023/04/18 06:49:50;;;;;;;7.47;6.55;;;;;;;7.64;82.62;102577.50;5021930;28;20029;-61
2023/04/18 06:52:15;;;;;;;8.40;7.50;;;;;;;7.78;81.96;102577.69;5022473;28;20036;-62
2023/04/18 06:54:41;;;;;;;9.18;8.27;;;;;;;7.92;81.44;102572.59;5022971;28;20461;-61
2023/04/18 06:57:06;;;;;;;8.65;7.78;;;;;;;8.07;81.32;102581.81;5021697;28;20053;-61
2023/04/18 06:59:31;;;;;;;10.10;8.32;;;;;;;7.98;81.61;102578.22;5025020;28;20025;-61
2023/04/18 07:01:57;;;;;;;9.95;7.35;;;;;;;7.92;82.47;102578.91;5021705;28;20018;-61
2023/04/18 07:04:22;;;;;;;9.18;7.90;;;;;;;7.94;80.57;102582.31;5022202;28;20033;-62
2023/04/18 07:06:47;;;;;;;8.90;7.68;;;;;;;7.99;79.99;102584.53;5025570;28;20075;-62
2023/04/18 07:09:12;;;;;;;9.35;8.20;;;;;;;7.52;82.64;102587.94;5022084;28;20428;-63
2023/04/18 07:11:39;;;;;;;9.13;8.23;;;;;;;7.59;83.02;102588.09;5023294;28;20079;-61
2023/04/18 07:14:04;;;;;;;9.02;7.55;;;;;;;7.66;83.70;102592.75;5006160;28;20040;-61
2023/04/18 07:16:30;;;;;;;10.95;8.63;;;;;;;7.76;82.12;102589.84;5024626;28;20021;-61
2023/04/18 07:18:55;;;;;;;8.75;7.85;;;;;;;7.75;82.69;102583.50;5020596;28;20021;-61
2023/04/18 07:21:20;;;;;;;9.10;7.45;;;;;;;7.77;82.32;102586.94;5024303;28;20071;-61
2023/04/18 07:23:45;;;;;;;7.28;6.55;;;;;;;7.84;82.22;102592.56;5024095;28;20384;-61
2023/04/18 07:26:12;;;;;;;9.77;8.15;;;;;;;7.44;84.79;102601.56;5025098;28;20033;-61
2023/04/18 07:28:37;;;;;;;7.78;6.82;;;;;;;7.57;84.16;102595.63;5025016;28;20376;-61
2023/04/18 07:31:03;;;;;;;7.13;5.50;;;;;;;7.44;85.17;102590.63;5014131;28;20022;-61
2023/04/18 07:33:32;;;;;;;8.82;7.72;;;;;;;7.61;84.66;102592.38;5024421;28;20258;-61
2023/04/18 07:35:58;;;;;;;9.45;8.55;;;;;;;8.01;81.60;102590.72;5026276;28;20052;-61
2023/04/18 07:38:23;;;;;;;9.20;8.15;;;;;;;7.54;84.15;102596.81;5009781;28;20362;-61
2023/04/18 07:41:00;;;;;;;9.27;8.38;;;;;;;7.86;82.00;102598.75;5027337;28;20099;-62
2023/04/18 07:43:25;;;;;;;7.80;7.00;;;;;;;7.84;82.54;102597.19;5027435;28;20112;-61
2023/04/18 07:45:51;;;;;;;8.95;7.88;;;;;;;7.47;85.84;102604.81;5028026;28;20125;-61
2023/04/18 07:48:16;;;;;;;9.20;6.43;;;;;;;7.72;84.88;102602.16;5025439;28;20037;-61
2023/04/18 07:50:41;;;;;;;9.70;8.70;;;;;;;8.09;82.66;102595.31;5027448;28;20087;-61
2023/04/18 07:53:07;;;;;;;7.97;7.15;;;;;;;8.06;82.58;102602.84;5027132;28;20029;-61
2023/04/18 07:55:33;;;;;;;9.38;8.38;;;;;;;7.86;84.77;102603.38;5024142;28;20092;-61
2023/04/18 07:57:58;;;;;;;8.20;6.88;;;;;;;7.92;85.56;102605.41;5026706;28;20472;-61
2023/04/18 08:00:24;;;;;;;8.45;7.60;;;;;;;8.24;84.15;102604.53;5022825;28;20025;-62
2023/04/18 08:02:49;;;;;;;8.98;8.07;;;;;;;8.17;86.20;102609.88;5025070;28;20702;-61
2023/04/18 08:05:14;;;;;;;8.88;8.00;;;;;;;8.32;85.42;102610.88;5015647;28;20047;-61
2023/04/18 08:07:39;;;;;;;9.15;8.25;;;;;;;8.41;84.13;102619.09;5017296;28;20381;-61
2023/04/18 08:10:05;;;;;;;7.75;6.60;;;;;;;8.83;81.39;102595.06;5014010;28;20027;-61
2023/04/18 08:12:31;;;;;;;9.70;5.93;;;;;;;8.70;82.75;102597.47;5017644;28;20026;-61
2023/04/18 08:14:56;;;;;;;8.30;7.05;;;;;;;8.84;81.41;102607.72;5020101;28;20026;-61
2023/04/18 08:17:22;;;;;;;7.97;7.10;;;;;;;8.70;83.02;102604.84;5014013;28;20350;-61
2023/04/18 08:19:47;;;;;;;8.95;7.40;;;;;;;8.66;82.65;102609.81;5019624;28;20519;-61
2023/04/18 08:22:13;;;;;;;8.35;7.18;;;;;;;8.67;82.65;102605.19;5018611;28;20075;-61
2023/04/18 08:24:39;;;;;;;8.80;7.40;;;;;;;8.74;83.01;102608.94;5020223;28;20085;-61
2023/04/18 08:27:04;;;;;;;8.18;7.38;;;;;;;8.78;81.82;102607.56;5022210;28;20051;-60
2023/04/18 08:29:29;;;;;;;8.93;7.00;;;;;;;8.69;82.37;102616.84;5021142;28;20029;-62
2023/04/18 08:31:55;;;;;;;8.15;7.35;;;;;;;8.71;81.58;102607.41;5024876;28;20065;-62
2023/04/18 08:34:20;;;;;;;8.55;6.80;;;;;;;8.84;81.59;102617.81;5011522;28;20021;-61
2023/04/18 08:36:45;;;;;;;7.80;7.00;;;;;;;8.98;81.32;102608.03;5009333;28;20057;-62
2023/04/18 08:39:11;;;;;;;8.68;6.55;;;;;;;8.93;82.19;102611.28;5020286;28;20017;-62
2023/04/18 08:41:36;;;;;;;8.40;7.15;;;;;;;9.09;80.75;102604.88;5019312;28;20041;-62
2023/04/18 08:44:02;;;;;;;7.43;6.70;;;;;;;8.94;82.11;102612.13;5015317;28;20029;-61
2023/04/18 08:46:28;;;;;;;7.88;7.07;;;;;;;8.98;82.52;102608.88;5012831;28;20034;-61
2023/04/18 08:48:58;;;;;;;7.55;6.22;;;;;;;9.32;79.33;102611.25;5029125;28;20022;-61
2023/04/18 08:51:28;;;;;;;7.85;6.93;;;;;;;9.33;79.47;102607.50;5027790;28;20476;-61
2023/04/18 08:53:55;;;;;;;7.90;7.05;;;;;;;9.93;78.46;102591.31;5028057;28;20079;-61
2023/04/18 08:56:24;;;;;;;8.05;6.90;;;;;;;10.42;75.83;102602.78;5028607;28;20048;-62
2023/04/18 08:58:51;;;;;;;7.38;6.53;;;;;;;10.93;75.04;102593.81;5027769;28;20596;-62
2023/04/18 09:01:16;;;;;;;6.85;4.80;;;;;;;11.78;70.26;102602.25;5028435;28;20087;-62
2023/04/18 09:03:42;;;;;;;7.57;6.18;;;;;;;13.68;67.47;102579.97;5028532;28;20034;-62
2023/04/18 09:06:12;;;;;;;7.28;5.40;;;;;;;14.64;61.35;102568.53;5028890;28;20021;-62
2023/04/18 09:08:40;;;;;;;6.45;5.53;;;;;;;14.01;60.72;102582.78;5028775;28;20022;-62
2023/04/18 09:11:28;;;;;;;7.40;6.43;;;;;;;14.79;59.93;102571.91;5008266;28;20024;-62
2023/04/18 09:13:55;;;;;;;6.78;5.78;;;;;;;15.41;56.38;102578.69;5007713;28;20036;-62
2023/04/18 09:16:22;;;;;;;7.82;6.70;;;;;;;14.88;56.53;102584.44;5014386;28;20453;-62
2023/04/18 09:19:07;;;;;;;6.60;5.45;;;;;;;13.44;60.37;102590.53;5027380;28;20083;-62
2023/04/18 09:21:34;;;;;;;6.88;5.63;;;;;;;12.41;61.99;102591.41;5028149;28;20033;-62
2023/04/18 09:24:25;;;;;;;6.93;5.47;;;;;;;11.88;65.31;102604.72;5027631;28;20044;-61
2023/04/18 09:26:52;;;;;;;8.65;5.53;;;;;;;11.56;65.93;102595.03;5002722;28;20307;-62
2023/04/18 09:29:21;;;;;;;7.65;4.75;;;;;;;11.41;65.92;102598.66;5026706;28;20022;-61
2023/04/18 09:31:58;;;;;;;6.38;5.28;;;;;;;11.24;67.32;102594.41;5023614;28;20410;-62
2023/04/18 09:34:25;;;;;;;6.73;5.20;;;;;;;10.96;67.50;102601.69;5000517;28;20105;-61
2023/04/18 09:37:07;;;;;;;6.72;5.53;;;;;;;10.67;69.06;102594.28;5006081;28;20277;-61
2023/04/18 09:39:33;;;;;;;7.57;6.10;;;;;;;10.78;69.16;102597.41;5005443;28;20041;-61
2023/04/18 09:41:59;;;;;;;6.28;4.40;;;;;;;10.58;70.29;102593.50;5006023;28;20042;-61
2023/04/18 09:44:25;;;;;;;6.75;5.57;;;;;;;10.57;71.02;102594.56;5035714;28;20064;-61
2023/04/18 09:46:50;;;;;;;5.13;4.20;;;;;;;11.20;66.35;102584.84;5033337;28;20056;-62
2023/04/18 09:49:16;;;;;;;6.30;4.93;;;;;;;10.50;70.63;102586.22;5019298;28;20038;-61
2023/04/18 09:51:43;;;;;;;6.50;5.40;;;;;;;10.50;70.31;102597.22;5008223;28;20453;-61
2023/04/18 09:54:10;;;;;;;6.45;4.85;;;;;;;10.57;69.78;102587.16;5007267;28;20121;-62
2023/04/18 09:56:37;;;;;;;7.50;4.90;;;;;;;10.61;69.92;102587.66;5024147;28;20030;-61
2023/04/18 09:59:07;;;;;;;6.15;5.35;;;;;;;10.86;68.00;102589.06;5021623;28;20418;-61
2023/04/18 10:01:33;;;;;;;6.10;4.72;;;;;;;10.77;68.29;102594.84;5021518;28;20049;-62
2023/04/18 10:04:02;;;;;;;5.72;4.80;;;;;;;10.69;69.92;102587.53;5009069;28;20045;-61
2023/04/18 10:06:27;;;;;;;6.50;5.05;;;;;;;10.82;69.29;102586.88;5025866;28;20052;-61
2023/04/18 10:08:54;;;;;;;5.68;4.75;;;;;;;10.76;70.14;102591.25;5023812;28;20021;-61
2023/04/18 10:11:20;;;;;;;5.72;4.80;;;;;;;10.98;70.75;102591.34;5009799;28;20107;-61
2023/04/18 10:13:53;;;;;;;5.60;4.40;;;;;;;11.36;70.10;102598.41;5026083;28;20033;-61
2023/04/18 10:16:19;;;;;;;5.43;4.43;;;;;;;11.59;66.50;102600.13;5012714;28;20033;-61
2023/04/18 10:18:45;;;;;;;4.78;3.95;;;;;;;11.29;66.44;102594.69;5007260;28;20030;-61
2023/04/18 10:21:10;;;;;;;3.75;2.92;;;;;;;11.42;66.34;102600.38;5015225;28;20029;-62
2023/04/18 10:23:37;;;;;;;3.38;2.63;;;;;;;11.59;65.93;102589.13;5018776;28;20040;-61
2023/04/18 10:26:04;;;;;;;4.28;3.50;;;;;;;11.27;65.23;102591.28;5027369;28;20021;-61
2023/04/18 10:28:53;;;;;;;4.85;3.50;;;;;;;11.63;63.70;102588.53;5025612;28;20029;-61
2023/04/18 10:31:21;;;;;;;4.60;3.17;;;;;;;11.18;66.03;102582.28;5009533;28;20026;-61
2023/04/18 10:33:56;;;;;;;5.20;3.97;;;;;;;11.03;65.58;102600.72;5020338;28;20441;-62
2023/04/18 10:36:21;;;;;;;5.00;3.33;;;;;;;11.51;63.70;102584.59;4999865;28;20068;-61
2023/04/18 10:38:52;;;;;;;5.18;3.92;;;;;;;11.11;67.19;102591.53;5006758;28;20057;-61
2023/04/18 10:41:21;;;;;;;4.55;3.60;;;;;;;11.27;67.51;102588.53;5017462;28;20388;-61
2023/04/18 10:44:05;;;;;;;5.25;4.43;;;;;;;11.34;68.71;102591.38;5008212;28;20120;-61
2023/04/18 10:46:31;;;;;;;5.45;4.00;;;;;;;11.32;66.96;102599.81;5021796;28;20034;-61
2023/04/18 10:49:16;;;;;;;5.82;4.30;;;;;;;11.34;67.82;102596.88;5024736;28;20080;-62
2023/04/18 10:51:50;;;;;;;4.70;3.42;;;;;;;11.58;66.26;102587.41;5014765;28;20057;-61
2023/04/18 10:54:30;;;;;;;6.57;4.15;;;;;;;11.81;64.17;102588.09;4997684;28;20038;-61
2023/04/18 10:56:58;;;;;;;5.28;4.60;;;;;;;11.13;66.12;102584.78;5006172;28;20045;-61
2023/04/18 10:59:25;;;;;;;4.70;3.75;;;;;;;11.39;66.10;102588.88;5005067;28;20026;-62
2023/04/18 11:01:56;;;;;;;5.40;4.72;;;;;;;10.99;68.88;102593.88;5006759;28;20117;-61
2023/04/18 11:04:23;;;;;;;6.40;5.10;;;;;;;11.13;67.32;102586.66;4988038;28;20026;-61
2023/04/18 11:06:55;;;;;;;6.13;5.25;;;;;;;11.37;67.72;102591.00;5005700;28;20026;-61
2023/04/18 11:09:21;;;;;;;6.55;5.43;;;;;;;11.93;66.17;102586.56;5001375;28;20079;-61
2023/04/18 11:12:02;;;;;;;6.43;5.72;;;;;;;11.92;65.31;102578.50;5026666;28;20038;-62
2023/04/18 11:14:41;;;;;;;7.72;5.82;;;;;;;11.73;67.27;102588.22;5027958;28;20044;-61
2023/04/18 11:17:22;;;;;;;6.45;5.78;;;;;;;11.91;64.94;102582.28;5030296;28;20105;-61
2023/04/18 11:19:48;;;;;;;5.40;4.25;;;;;;;11.41;66.21;102587.66;5030397;28;20083;-61
2023/04/18 11:22:15;;;;;;;5.82;4.75;;;;;;;11.89;64.59;102578.88;5026494;28;20089;-62
2023/04/18 11:24:40;;;;;;;6.38;5.35;;;;;;;11.15;68.87;102573.56;5030692;28;20060;-61
2023/04/18 11:27:09;;;;;;;6.43;4.90;;;;;;;11.25;69.16;102587.88;5024614;28;20053;-61